Time;durP1;ratioP1;P1;durP2;ratioP2;P2;SDS_P1;SDS_P2;PMS_P1;PMS_P2;Temp;Humidity;BMP_temperature;BMP_pressure;BME280_temperature;BME280_humidity;BME280_pressure;Samples;Min_cycle;Max_cycle;Signal;HPM_P1;HPM_P2
2022/04/21 00:00:19;;;;;;;79.00;9.15;;;;;;;9.61;100.00;97449.56;5002877;28;20083;-57
2022/04/21 00:02:45;;;;;;;72.28;9.32;;;;;;;9.46;100.00;97460.66;5001199;28;20088;-58
2022/04/21 00:05:12;;;;;;;76.65;8.85;;;;;;;9.37;100.00;97451.50;4998534;28;20030;-59
2022/04/21 00:07:37;;;;;;;74.28;9.15;;;;;;;9.00;100.00;97450.53;5004455;28;20050;-58
2022/04/21 00:10:07;;;;;;;71.63;9.10;;;;;;;9.53;100.00;97454.25;5003610;28;20113;-58
2022/04/21 00:12:34;;;;;;;71.90;9.27;;;;;;;9.24;100.00;97448.63;5003320;28;20514;-58
2022/04/21 00:15:00;;;;;;;73.07;9.40;;;;;;;9.06;100.00;97445.06;5001800;28;20065;-59
2022/04/21 00:17:26;;;;;;;72.57;8.98;;;;;;;9.47;100.00;97440.69;5001699;28;20038;-57
2022/04/21 00:19:51;;;;;;;75.72;9.25;;;;;;;9.25;100.00;97444.25;5003896;28;20040;-57
2022/04/21 00:25:02;;;;;;;77.47;9.40;;;;;;;9.30;100.00;97437.09;5001776;28;20075;-57
2022/04/21 00:27:28;;;;;;;77.93;9.27;;;;;;;9.35;100.00;97437.72;4999759;28;20921;-59
2022/04/21 00:29:53;;;;;;;80.18;9.63;;;;;;;9.17;100.00;97441.13;5001981;28;20069;-58
2022/04/21 00:32:18;;;;;;;67.47;9.10;;;;;;;9.04;100.00;97435.63;5003734;28;20100;-58
2022/04/21 00:34:44;;;;;;;96.25;10.30;;;;;;;9.02;100.00;97438.31;5000401;28;20133;-59
2022/04/21 00:37:10;;;;;;;74.25;9.18;;;;;;;9.04;100.00;97439.09;5000994;28;20029;-58
2022/04/21 00:39:35;;;;;;;78.53;9.07;;;;;;;9.16;100.00;97444.66;5000576;28;20026;-58
2022/04/21 00:42:02;;;;;;;80.68;10.05;;;;;;;9.13;100.00;97434.38;5001470;28;20373;-58
2022/04/21 00:44:29;;;;;;;88.47;9.75;;;;;;;9.40;100.00;97447.94;5002037;28;20063;-56
2022/04/21 00:46:57;;;;;;;83.55;9.88;;;;;;;9.21;100.00;97440.13;5001917;28;20030;-57
2022/04/21 00:49:25;;;;;;;81.28;10.15;;;;;;;9.05;100.00;97437.34;5004238;28;20442;-57
2022/04/21 00:51:52;;;;;;;69.43;9.55;;;;;;;8.96;100.00;97438.56;5003565;28;20681;-58
2022/04/21 00:54:17;;;;;;;64.18;8.70;;;;;;;9.06;100.00;97439.00;5003693;28;20030;-57
2022/04/21 00:56:44;;;;;;;68.28;9.27;;;;;;;9.11;100.00;97431.00;5002841;28;20044;-57
2022/04/21 00:59:12;;;;;;;73.95;9.02;;;;;;;9.24;100.00;97442.56;4999470;28;20048;-57
2022/04/21 01:04:24;;;;;;;75.28;9.20;;;;;;;9.40;100.00;97438.34;5003375;28;20396;-56
2022/04/21 01:06:52;;;;;;;76.85;8.32;;;;;;;9.56;100.00;97427.25;5002337;28;20519;-57
2022/04/21 01:09:17;;;;;;;78.15;9.63;;;;;;;9.21;100.00;97432.31;5002293;28;20710;-57
2022/04/21 01:11:43;;;;;;;80.38;9.80;;;;;;;9.40;100.00;97433.16;4999131;28;20691;-56
2022/04/21 01:14:09;;;;;;;62.03;8.70;;;;;;;9.37;100.00;97429.84;5002294;28;20034;-56
2022/04/21 01:16:35;;;;;;;67.55;8.80;;;;;;;9.33;100.00;97431.72;5002139;28;20107;-56
2022/04/21 01:19:01;;;;;;;64.90;9.38;;;;;;;9.36;100.00;97429.00;5000488;28;20113;-55
2022/04/21 01:21:26;;;;;;;62.95;6.75;;;;;;;9.46;100.00;97426.81;4999895;28;20053;-57
2022/04/21 01:23:51;;;;;;;61.30;7.90;;;;;;;9.44;100.00;97426.03;5002902;28;20065;-55
2022/04/21 01:26:17;;;;;;;91.15;9.45;;;;;;;9.38;100.00;97426.34;5000972;28;20125;-56
2022/04/21 01:28:45;;;;;;;64.38;8.93;;;;;;;9.15;100.00;97422.97;5003287;28;20026;-56
2022/04/21 01:31:10;;;;;;;76.93;8.52;;;;;;;9.03;100.00;97419.19;5000422;28;20045;-56
2022/04/21 01:33:36;;;;;;;72.00;9.10;;;;;;;9.37;100.00;97422.88;5002093;28;20026;-58
2022/04/21 01:36:01;;;;;;;80.65;9.60;;;;;;;9.51;100.00;97419.66;5001773;28;20052;-56
2022/04/21 01:41:11;;;;;;;76.88;8.35;;;;;;;9.42;100.00;97420.06;5001599;28;20045;-55
2022/04/21 01:43:38;;;;;;;68.35;7.97;;;;;;;9.18;100.00;97416.81;4997644;28;20070;-57
2022/04/21 01:46:04;;;;;;;66.85;8.13;;;;;;;9.43;100.00;97420.00;5000474;28;20069;-57
2022/04/21 01:48:29;;;;;;;81.50;9.63;;;;;;;9.40;100.00;97422.72;5002481;28;20021;-56
2022/04/21 01:50:55;;;;;;;67.45;8.68;;;;;;;9.39;100.00;97410.66;4999344;28;20046;-57
2022/04/21 01:53:20;;;;;;;70.18;9.05;;;;;;;8.91;100.00;97408.47;5000853;28;20009;-56
2022/04/21 01:55:46;;;;;;;77.43;8.50;;;;;;;9.17;100.00;97409.91;5002569;28;20048;-57
2022/04/21 01:58:12;;;;;;;89.63;9.52;;;;;;;9.22;100.00;97410.56;5000304;28;20018;-56
2022/04/21 02:00:38;;;;;;;71.78;8.27;;;;;;;9.04;100.00;97405.28;5003321;28;20514;-58
2022/04/21 02:03:03;;;;;;;79.88;9.30;;;;;;;9.03;100.00;97402.75;5002501;28;20399;-57
2022/04/21 02:05:28;;;;;;;72.85;9.05;;;;;;;9.15;100.00;97399.56;4998613;28;20652;-57
2022/04/21 02:07:54;;;;;;;75.72;8.48;;;;;;;9.06;100.00;97398.25;4999716;28;20029;-57
2022/04/21 02:10:21;;;;;;;81.75;9.10;;;;;;;9.16;100.00;97397.84;5003134;28;20037;-55
2022/04/21 02:12:47;;;;;;;66.13;8.63;;;;;;;9.06;100.00;97402.59;5000771;28;20655;-55
2022/04/21 02:15:13;;;;;;;65.50;8.35;;;;;;;8.84;100.00;97406.16;5006657;28;20127;-56
2022/04/21 02:17:39;;;;;;;77.57;9.18;;;;;;;8.80;100.00;97401.13;5007548;28;20529;-56
2022/04/21 02:20:12;;;;;;;80.35;9.02;;;;;;;8.80;100.00;97406.34;5006749;28;20029;-56
2022/04/21 02:22:37;;;;;;;;;;;;;;;8.94;100.00;97398.78;5006718;28;20091;-57
2022/04/21 02:25:04;;;;;;;66.60;8.25;;;;;;;8.79;100.00;97397.69;5005514;28;20307;-56
2022/04/21 02:27:29;;;;;;;55.00;7.88;;;;;;;8.79;100.00;97394.25;5004211;28;20119;-57
2022/04/21 02:29:55;;;;;;;66.35;7.95;;;;;;;8.91;100.00;97393.69;5003348;28;20825;-56
2022/04/21 02:32:21;;;;;;;69.20;8.52;;;;;;;8.91;100.00;97382.47;5004299;28;20030;-56
2022/04/21 02:34:46;;;;;;;82.40;8.73;;;;;;;8.85;100.00;97388.78;5005482;28;20095;-57
2022/04/21 02:37:12;;;;;;;78.75;8.85;;;;;;;8.47;100.00;97389.53;5003696;28;20459;-57
2022/04/21 02:39:37;;;;;;;65.78;7.03;;;;;;;8.84;100.00;97393.16;5005704;28;20136;-56
2022/04/21 02:42:03;;;;;;;76.13;8.43;;;;;;;8.72;100.00;97392.84;5002341;28;20041;-57
2022/04/21 02:44:29;;;;;;;52.85;8.02;;;;;;;8.52;100.00;97391.91;5006431;28;20046;-56
2022/04/21 02:46:54;;;;;;;68.15;8.60;;;;;;;8.88;100.00;97391.25;5006286;28;20044;-55
2022/04/21 02:49:20;;;;;;;72.30;6.97;;;;;;;9.35;100.00;97396.06;5004591;28;20112;-56
2022/04/21 02:51:45;;;;;;;85.93;7.97;;;;;;;9.06;100.00;97392.19;5002494;28;20041;-56
2022/04/21 02:59:41;;;;;;;72.65;9.05;;;;;;;8.51;100.00;97392.84;5005388;28;20738;-58
2022/04/21 03:02:06;;;;;;;90.22;9.57;;;;;;;8.28;100.00;97389.41;4999351;28;20045;-56
2022/04/21 03:04:31;;;;;;;71.30;8.68;;;;;;;8.36;100.00;97385.66;5005315;28;20038;-55
2022/04/21 03:06:57;;;;;;;84.63;9.35;;;;;;;8.20;100.00;97391.50;5005731;28;20395;-57
2022/04/21 03:09:22;;;;;;;67.00;8.55;;;;;;;8.23;100.00;97383.53;5004434;28;20125;-56
2022/04/21 03:11:48;;;;;;;67.30;8.38;;;;;;;8.14;100.00;97386.53;5004332;28;20042;-56
2022/04/21 03:14:14;;;;;;;85.28;9.52;;;;;;;8.04;100.00;97386.06;5002893;28;20026;-55
2022/04/21 03:16:39;;;;;;;80.47;9.40;;;;;;;7.99;100.00;97382.81;5005904;28;20112;-56
2022/04/21 03:19:04;;;;;;;79.50;9.13;;;;;;;7.99;100.00;97385.41;5006722;28;20025;-55
2022/04/21 03:24:19;;;;;;;80.13;8.90;;;;;;;8.01;100.00;97388.78;5005003;28;20040;-56
2022/04/21 03:26:49;;;;;;;66.65;7.85;;;;;;;7.98;100.00;97380.28;5003536;28;20120;-56
2022/04/21 03:29:15;;;;;;;87.03;9.43;;;;;;;7.74;100.00;97382.97;5006326;28;20018;-57
2022/04/21 03:31:43;;;;;;;76.05;8.45;;;;;;;7.91;100.00;97390.06;5003081;28;20419;-57
2022/04/21 03:34:14;;;;;;;70.55;8.63;;;;;;;8.05;100.00;97376.50;5004050;28;20404;-57
2022/04/21 03:36:49;;;;;;;70.85;7.47;;;;;;;8.27;100.00;97376.47;4993405;28;20041;-56
2022/04/21 03:39:17;;;;;;;77.43;8.57;;;;;;;8.59;100.00;97382.94;5003945;28;20026;-58
2022/04/21 03:41:42;;;;;;;77.03;9.20;;;;;;;8.32;100.00;97376.28;5006135;28;20037;-57
2022/04/21 03:44:09;;;;;;;81.72;8.57;;;;;;;8.23;100.00;97365.38;5002315;28;20036;-56
2022/04/21 03:46:34;;;;;;;87.60;9.07;;;;;;;8.25;100.00;97368.78;5001588;28;20054;-56
2022/04/21 03:49:00;;;;;;;71.38;8.15;;;;;;;8.11;100.00;97371.09;5005428;28;20129;-57
2022/04/21 03:51:27;;;;;;;77.35;8.52;;;;;;;7.59;100.00;97378.34;5003861;28;20046;-56
2022/04/21 03:53:54;;;;;;;59.60;7.88;;;;;;;7.46;100.00;97376.25;5003389;28;20105;-57
2022/04/21 03:56:20;;;;;;;78.32;9.02;;;;;;;7.55;100.00;97380.22;4991727;28;20042;-57
2022/04/21 03:58:46;;;;;;;87.15;9.65;;;;;;;7.51;100.00;97376.06;5002691;28;20029;-57
2022/04/21 04:01:11;;;;;;;69.93;9.07;;;;;;;7.81;100.00;97371.44;5003481;28;20037;-55
2022/04/21 04:03:37;;;;;;;70.30;8.57;;;;;;;7.63;100.00;97369.56;5004049;28;20025;-58
2022/04/21 04:06:02;;;;;;;61.45;6.38;;;;;;;8.47;100.00;97370.47;5001094;28;20173;-56
2022/04/21 04:11:11;;;;;;;69.40;8.23;;;;;;;8.25;100.00;97367.91;5003818;28;20766;-57
2022/04/21 04:13:36;;;;;;;73.68;8.40;;;;;;;8.34;100.00;97361.47;5002636;28;20030;-56
2022/04/21 04:16:02;;;;;;;72.85;8.15;;;;;;;8.43;100.00;97369.75;5001767;28;20037;-56
2022/04/21 04:18:29;;;;;;;71.70;8.48;;;;;;;8.20;100.00;97365.50;5003755;28;20100;-56
2022/04/21 04:20:54;;;;;;;75.05;8.40;;;;;;;7.90;100.00;97365.88;5005054;28;20042;-56
2022/04/21 04:23:21;;;;;;;68.85;8.82;;;;;;;7.69;100.00;97370.16;5004003;28;20038;-57
2022/04/21 04:25:47;;;;;;;81.53;9.25;;;;;;;7.98;100.00;97372.50;5000082;28;20042;-58
2022/04/21 04:28:13;;;;;;;97.43;9.73;;;;;;;8.19;100.00;97368.16;5003459;28;20040;-57
2022/04/21 04:30:39;;;;;;;71.28;8.50;;;;;;;8.01;100.00;97369.75;4999998;28;20041;-57
2022/04/21 04:33:05;;;;;;;126.22;10.65;;;;;;;8.23;100.00;97364.53;5000967;28;20022;-56
2022/04/21 04:35:31;;;;;;;57.25;7.45;;;;;;;8.24;100.00;97361.88;5000045;28;20045;-56
2022/04/21 04:37:57;;;;;;;80.45;6.95;;;;;;;9.02;100.00;97365.47;5001894;28;20069;-56
2022/04/21 04:40:22;;;;;;;92.43;9.63;;;;;;;8.48;100.00;97366.97;5002772;28;20708;-56
2022/04/21 04:42:48;;;;;;;107.78;10.52;;;;;;;8.35;100.00;97368.38;5000265;28;20117;-57
2022/04/21 04:47:57;;;;;;;78.18;9.65;;;;;;;8.50;100.00;97367.75;5003487;28;20518;-58
2022/04/21 04:50:22;;;;;;;79.88;10.52;;;;;;;8.56;100.00;97362.28;4999939;28;20133;-56
2022/04/21 04:52:47;;;;;;;74.07;10.60;;;;;;;8.72;100.00;97367.66;5001707;28;20018;-58
2022/04/21 04:55:13;;;;;;;89.85;10.10;;;;;;;8.51;100.00;97374.66;5001815;28;20029;-58
2022/04/21 04:57:39;;;;;;;81.35;9.30;;;;;;;8.60;100.00;97369.06;5000656;28;20034;-58
2022/04/21 05:00:06;;;;;;;90.32;10.23;;;;;;;8.86;100.00;97364.47;5002247;28;20400;-58
2022/04/21 05:02:31;;;;;;;77.85;11.75;;;;;;;9.01;100.00;97357.75;5001294;28;20037;-57
2022/04/21 05:04:57;;;;;;;83.68;10.18;;;;;;;9.63;100.00;97360.94;5002267;28;20038;-57
2022/04/21 05:07:24;;;;;;;66.07;8.73;;;;;;;10.15;100.00;97358.44;5002902;28;20057;-56
2022/04/21 05:09:49;;;;;;;65.15;7.90;;;;;;;10.14;100.00;97356.72;5002402;28;20084;-55
2022/04/21 05:12:14;;;;;;;71.53;8.05;;;;;;;9.94;100.00;97357.69;5001647;28;20042;-56
2022/04/21 05:14:40;;;;;;;90.07;8.68;;;;;;;9.87;100.00;97355.47;5002238;28;20125;-58
2022/04/21 05:17:05;;;;;;;75.15;7.55;;;;;;;11.04;100.00;97362.66;5000167;28;20065;-58
2022/04/21 05:19:31;;;;;;;82.40;8.77;;;;;;;10.95;100.00;97358.75;5001083;28;20599;-58
2022/04/21 05:22:02;;;;;;;97.80;9.50;;;;;;;11.91;100.00;97362.25;4997124;28;20707;-58
2022/04/21 05:24:31;;;;;;;81.13;8.30;;;;;;;12.52;100.00;97353.50;4999069;28;20030;-58
2022/04/21 05:26:56;;;;;;;74.57;8.93;;;;;;;12.37;100.00;97350.94;5001084;28;20056;-58
2022/04/21 05:32:07;;;;;;;64.10;8.25;;;;;;;11.75;100.00;97360.50;5003200;28;20076;-58
2022/04/21 05:34:32;;;;;;;73.50;9.23;;;;;;;11.06;100.00;97359.03;5003038;28;20021;-58
2022/04/21 05:36:59;;;;;;;74.00;8.88;;;;;;;12.30;100.00;97353.09;4998361;28;20030;-60
2022/04/21 05:39:25;;;;;;;70.65;9.25;;;;;;;11.59;100.00;97354.44;5001738;28;20025;-58
2022/04/21 05:41:52;;;;;;;101.28;10.20;;;;;;;11.77;100.00;97363.84;4999886;28;20104;-58
2022/04/21 05:44:18;;;;;;;74.03;8.82;;;;;;;11.98;100.00;97360.97;4999990;28;20101;-58
2022/04/21 05:46:45;;;;;;;68.45;9.02;;;;;;;12.77;100.00;97353.81;4999807;28;20128;-56
2022/04/21 05:49:11;;;;;;;55.40;8.02;;;;;;;13.10;100.00;97357.00;5002472;28;20026;-57
2022/04/21 05:51:37;;;;;;;74.60;9.07;;;;;;;14.35;99.48;97359.53;5003748;28;20100;-57
2022/04/21 05:54:05;;;;;;;65.60;8.35;;;;;;;14.93;94.69;97360.06;5002103;28;20029;-58
2022/04/21 05:56:31;;;;;;;66.35;8.32;;;;;;;13.90;95.40;97364.25;5000859;28;20042;-58
2022/04/21 05:58:56;;;;;;;75.38;9.35;;;;;;;16.93;73.78;97357.91;5003137;28;20041;-58
2022/04/21 06:01:22;;;;;;;58.90;8.25;;;;;;;15.00;80.88;97371.81;5001687;28;20041;-59
2022/04/21 06:03:47;;;;;;;74.45;9.15;;;;;;;15.64;76.30;97356.88;5002646;28;20026;-58
2022/04/21 06:06:12;;;;;;;69.50;9.27;;;;;;;15.12;78.36;97361.41;5000935;28;20038;-58
2022/04/21 06:08:39;;;;;;;62.83;8.63;;;;;;;16.18;74.69;97357.31;5002317;28;20027;-57
2022/04/21 06:11:04;;;;;;;63.72;9.07;;;;;;;14.31;78.69;97362.50;4999418;28;20049;-57
2022/04/21 06:13:31;;;;;;;70.35;9.20;;;;;;;14.34;79.47;97368.38;5000533;28;20022;-57
2022/04/21 06:15:57;;;;;;;77.40;9.30;;;;;;;13.87;86.45;97359.19;5001683;28;20037;-57
2022/04/21 06:18:23;;;;;;;72.95;9.38;;;;;;;13.82;81.99;97362.13;5003123;28;20026;-58
2022/04/21 06:20:50;;;;;;;69.13;9.15;;;;;;;13.52;90.64;97361.47;5000911;28;20489;-59
2022/04/21 06:23:16;;;;;;;60.10;8.75;;;;;;;13.07;89.06;97356.34;5005488;28;20270;-57
2022/04/21 06:25:42;;;;;;;64.32;9.27;;;;;;;13.99;86.31;97357.59;5001503;28;20139;-58
2022/04/21 06:28:09;;;;;;;68.10;9.38;;;;;;;13.88;86.58;97363.53;5001332;28;20886;-58
2022/04/21 06:30:34;;;;;;;51.22;8.75;;;;;;;12.75;96.92;97364.34;5000743;28;20046;-57
2022/04/21 06:33:00;;;;;;;100.35;10.77;;;;;;;13.57;94.35;97372.50;4999851;28;20018;-57
2022/04/21 06:35:26;;;;;;;76.00;10.30;;;;;;;12.25;99.62;97366.41;5002259;28;20034;-58
2022/04/21 06:37:53;;;;;;;53.10;8.63;;;;;;;12.36;100.00;97367.56;5002559;28;20105;-58
2022/04/21 06:40:19;;;;;;;77.82;10.15;;;;;;;12.63;100.00;97363.31;5001452;28;20112;-58
2022/04/21 06:42:44;;;;;;;68.35;9.30;;;;;;;12.94;100.00;97371.97;5000338;28;20369;-57
2022/04/21 06:48:04;;;;;;;83.97;10.00;;;;;;;12.59;100.00;97374.06;4999798;28;20111;-59
2022/04/21 06:50:33;;;;;;;55.53;8.77;;;;;;;12.39;100.00;97373.47;5002947;28;20037;-58
2022/04/21 06:52:59;;;;;;;72.20;10.02;;;;;;;12.66;100.00;97362.28;5002038;28;20029;-59
2022/04/21 06:55:24;;;;;;;68.45;10.18;;;;;;;12.21;100.00;97361.47;4999897;28;20041;-58
2022/04/21 06:57:50;;;;;;;60.45;10.02;;;;;;;11.80;100.00;97362.00;5002422;28;20036;-57
2022/04/21 07:00:15;;;;;;;72.05;9.55;;;;;;;11.64;100.00;97368.09;5002021;28;20041;-58
2022/04/21 07:02:42;;;;;;;76.63;10.27;;;;;;;12.12;100.00;97363.66;5005891;28;20534;-59
2022/04/21 07:05:10;;;;;;;77.28;10.02;;;;;;;11.99;100.00;97370.53;5005086;28;20585;-58
2022/04/21 07:07:36;;;;;;;75.18;10.18;;;;;;;11.93;100.00;97373.50;5004722;28;20022;-57
2022/04/21 07:10:02;;;;;;;75.53;10.25;;;;;;;12.22;100.00;97378.81;5004793;28;20026;-58
2022/04/21 07:12:29;;;;;;;69.60;9.50;;;;;;;12.21;100.00;97379.75;5004128;28;20053;-57
2022/04/21 07:14:57;;;;;;;97.38;11.48;;;;;;;12.39;100.00;97368.22;5005355;28;20036;-57
2022/04/21 07:17:22;;;;;;;72.70;9.82;;;;;;;12.33;100.00;97365.97;5006246;28;20516;-56
2022/04/21 07:19:48;;;;;;;63.35;9.82;;;;;;;11.97;100.00;97374.16;5004736;28;20110;-58
2022/04/21 07:22:14;;;;;;;83.95;10.13;;;;;;;11.90;100.00;97357.97;5003791;28;20084;-57
2022/04/21 07:24:39;;;;;;;80.35;10.00;;;;;;;11.69;100.00;97366.06;5005033;28;20038;-56
2022/04/21 07:27:04;;;;;;;64.15;9.63;;;;;;;11.67;100.00;97362.69;5002142;28;20855;-57
2022/04/21 07:29:30;;;;;;;85.10;9.88;;;;;;;12.82;100.00;97357.81;5003539;28;20033;-57
2022/04/21 07:31:56;;;;;;;75.35;9.50;;;;;;;12.87;100.00;97354.94;5003782;28;20043;-58
2022/04/21 07:34:21;;;;;;;89.05;10.40;;;;;;;12.90;100.00;97355.59;5005471;28;20037;-56
2022/04/21 07:36:47;;;;;;;76.18;10.73;;;;;;;12.60;100.00;97353.03;5002419;28;20045;-57
2022/04/21 07:39:12;;;;;;;76.68;10.05;;;;;;;12.96;100.00;97348.28;5004008;28;20025;-57
2022/04/21 07:41:37;;;;;;;74.18;10.15;;;;;;;12.90;100.00;97357.34;5003984;28;20030;-59
2022/04/21 07:44:03;;;;;;;77.13;10.15;;;;;;;13.05;100.00;97352.97;5002781;28;20137;-57
2022/04/21 07:46:28;;;;;;;71.28;9.70;;;;;;;12.23;100.00;97357.81;5004439;28;20038;-57
2022/04/21 07:51:38;;;;;;;68.78;10.30;;;;;;;12.68;100.00;97355.19;5004184;28;20053;-58
2022/04/21 07:54:03;;;;;;;72.00;9.27;;;;;;;13.99;100.00;97352.34;5004654;28;20014;-58
2022/04/21 07:56:28;;;;;;;76.50;9.77;;;;;;;13.73;95.73;97357.50;5002132;28;20034;-58
2022/04/21 07:58:54;;;;;;;76.10;9.43;;;;;;;13.36;96.58;97356.34;5003205;28;20510;-57
2022/04/21 08:01:19;;;;;;;86.05;10.18;;;;;;;13.80;93.99;97350.06;5003938;28;20061;-57
2022/04/21 08:03:44;;;;;;;60.92;8.77;;;;;;;13.35;98.67;97359.91;5006255;28;20112;-58
2022/04/21 08:06:12;;;;;;;90.30;10.90;;;;;;;13.45;94.53;97358.38;5003749;28;20117;-58
2022/04/21 08:08:40;;;;;;;73.95;9.35;;;;;;;13.32;91.62;97360.09;5002498;28;20403;-59
2022/04/21 08:11:06;;;;;;;73.13;9.82;;;;;;;13.28;95.31;97349.75;5003738;28;20726;-57
2022/04/21 08:13:31;;;;;;;73.15;9.18;;;;;;;13.49;100.00;97357.25;5002663;28;20056;-62
2022/04/21 08:15:56;;;;;;;45.65;7.65;;;;;;;14.18;92.16;97350.19;5000470;28;20192;-58
2022/04/21 08:18:21;;;;;;;79.28;9.40;;;;;;;14.03;90.40;97351.19;5004954;28;20034;-58
2022/04/21 08:20:48;;;;;;;90.35;8.75;;;;;;;15.11;92.84;97346.59;5001926;28;20038;-59
2022/04/21 08:23:14;;;;;;;68.38;8.75;;;;;;;14.05;90.09;97344.91;5003517;28;20639;-57
2022/04/21 08:33:51;;;;;;;65.78;8.38;;;;;;;15.79;73.47;97342.66;5005147;28;20065;-58
2022/04/21 08:36:17;;;;;;;74.15;8.88;;;;;;;15.21;72.79;97340.56;5001551;28;20173;-58
2022/04/21 08:38:43;;;;;;;67.95;8.30;;;;;;;16.55;69.57;97345.81;5002894;28;20385;-59
2022/04/21 08:41:15;;;;;;;53.08;7.80;;;;;;;16.99;67.13;97341.59;5001801;28;20518;-59
2022/04/21 08:43:40;;;;;;;69.07;8.52;;;;;;;16.82;65.85;97344.66;5002557;28;20022;-58
2022/04/21 08:46:08;;;;;;;72.05;8.13;;;;;;;17.90;62.75;97342.34;5003310;28;20044;-57
2022/04/21 08:48:37;;;;;;;73.82;8.75;;;;;;;16.99;65.01;97340.78;5002129;28;20029;-57
2022/04/21 08:51:12;;;;;;;61.00;7.40;;;;;;;17.00;64.38;97338.03;5002951;28;20571;-58
2022/04/21 08:53:38;;;;;;;74.85;8.52;;;;;;;17.70;62.43;97339.50;5004030;28;20349;-57
2022/04/21 08:56:04;;;;;;;74.28;8.65;;;;;;;16.41;65.86;97340.75;5001321;28;20044;-56
2022/04/21 08:58:29;;;;;;;76.22;8.02;;;;;;;18.36;59.31;97337.72;5001485;28;20041;-56
2022/04/21 09:00:57;;;;;;;62.55;8.10;;;;;;;17.24;63.03;97334.41;5003946;28;20034;-57
2022/04/21 09:03:22;;;;;;;66.40;8.25;;;;;;;16.61;63.93;97326.91;5003676;28;20026;-56
2022/04/21 09:05:47;;;;;;;66.55;7.40;;;;;;;17.75;61.89;97338.28;5002435;28;20049;-57
2022/04/21 09:08:24;;;;;;;65.63;7.55;;;;;;;16.32;63.85;97324.72;5004233;28;20038;-58
2022/04/21 09:11:02;;;;;;;66.38;7.10;;;;;;;16.46;65.05;97328.09;5002531;28;20048;-58
2022/04/21 09:13:44;;;;;;;51.13;6.53;;;;;;;18.22;59.89;97326.50;5001816;28;20113;-57
2022/04/21 09:16:12;;;;;;;50.80;7.05;;;;;;;17.72;60.94;97328.84;5001426;28;20116;-57
2022/04/21 09:18:46;;;;;;;59.40;7.00;;;;;;;18.82;56.60;97321.50;5003530;28;20068;-58
2022/04/21 09:21:15;;;;;;;62.38;6.93;;;;;;;18.98;55.40;97318.38;5002807;28;20038;-57
2022/04/21 09:23:41;;;;;;;57.65;6.63;;;;;;;17.75;61.96;97315.38;5002740;28;20030;-59
2022/04/21 09:26:08;;;;;;;67.30;7.43;;;;;;;18.37;58.46;97315.66;4998660;28;20397;-57
2022/04/21 09:28:34;;;;;;;56.70;7.20;;;;;;;18.06;58.35;97315.53;5002829;28;20395;-57
2022/04/21 09:31:00;;;;;;;66.32;7.75;;;;;;;20.08;52.20;97306.13;5001496;28;20063;-57
2022/04/21 09:33:46;;;;;;;71.68;8.32;;;;;;;18.64;54.50;97304.56;5002744;28;20037;-57
2022/04/21 09:36:12;;;;;;;66.82;7.55;;;;;;;18.76;55.27;97314.06;5001097;28;20038;-57
2022/04/21 09:38:38;;;;;;;54.28;7.50;;;;;;;17.67;56.59;97307.25;5002035;28;20034;-56
2022/04/21 09:41:13;;;;;;;67.63;7.68;;;;;;;19.02;54.58;97309.22;5004625;28;20038;-57
2022/04/21 09:43:41;;;;;;;59.83;7.20;;;;;;;18.24;56.24;97307.91;5002228;28;20089;-57
2022/04/21 09:46:17;;;;;;;79.30;7.40;;;;;;;17.84;58.83;97293.53;5005079;28;20033;-58
2022/04/21 09:48:44;;;;;;;57.88;7.18;;;;;;;19.14;54.27;97298.56;5001768;28;20026;-56
2022/04/21 09:51:13;;;;;;;76.65;7.97;;;;;;;17.04;57.18;97301.72;5000030;28;20045;-58
2022/04/21 09:54:16;;;;;;;55.90;6.82;;;;;;;18.81;59.59;97300.50;5002803;28;20606;-57
2022/04/21 09:56:41;;;;;;;59.25;6.90;;;;;;;18.83;52.42;97288.81;4971603;28;20042;-58
2022/04/21 09:59:12;;;;;;;58.08;6.93;;;;;;;18.11;55.86;97277.25;5001646;28;20030;-58
2022/04/21 10:01:42;;;;;;;57.05;6.78;;;;;;;19.78;51.75;97284.13;5000006;28;20200;-57
2022/04/21 10:04:09;;;;;;;78.13;8.05;;;;;;;18.49;52.60;97278.50;5002444;28;20411;-56
2022/04/21 10:06:37;;;;;;;55.53;6.53;;;;;;;18.96;51.63;97283.31;5000492;28;20278;-56
2022/04/21 10:09:02;;;;;;;70.88;7.10;;;;;;;19.94;50.68;97265.88;5000917;28;20025;-55
2022/04/21 10:11:28;;;;;;;54.90;6.80;;;;;;;18.64;50.85;97278.97;4999841;28;20420;-56
2022/04/21 10:13:55;;;;;;;64.00;7.05;;;;;;;21.64;45.54;97271.22;5001605;28;20037;-57
2022/04/21 10:16:26;;;;;;;70.07;7.32;;;;;;;19.06;49.00;97273.63;5002157;28;20099;-56
2022/04/21 10:18:54;;;;;;;74.60;7.13;;;;;;;21.35;47.86;97270.34;5003614;28;20432;-57
2022/04/21 10:21:25;;;;;;;71.90;7.55;;;;;;;21.69;46.45;97260.97;5001091;28;20049;-55
2022/04/21 10:23:52;;;;;;;71.97;7.00;;;;;;;21.17;47.95;97256.22;5003338;28;20025;-58
2022/04/21 10:26:40;;;;;;;56.13;6.55;;;;;;;20.64;48.53;97263.03;5000300;28;20062;-56
2022/04/21 10:29:16;;;;;;;60.08;6.72;;;;;;;18.97;49.85;97253.28;5003456;28;20025;-57
2022/04/21 10:32:01;;;;;;;55.70;6.22;;;;;;;19.79;50.81;97254.84;5000915;28;20034;-58
2022/04/21 10:34:41;;;;;;;63.47;6.97;;;;;;;19.59;49.21;97247.84;5001197;28;20018;-56
2022/04/21 10:37:12;;;;;;;59.83;6.07;;;;;;;20.23;48.75;97246.47;5005564;28;20083;-58
2022/04/21 10:39:39;;;;;;;62.45;6.40;;;;;;;17.81;52.91;97256.88;5008228;28;20034;-57
2022/04/21 10:42:11;;;;;;;58.88;6.47;;;;;;;17.90;53.11;97253.50;5004618;28;20030;-58
2022/04/21 10:44:41;;;;;;;;;;;;;;;19.22;50.73;97243.19;5004669;28;20108;-58
2022/04/21 10:47:29;;;;;;;62.40;6.47;;;;;;;18.47;52.31;97247.88;5004790;28;19917;-57
2022/04/21 10:49:56;;;;;;;70.53;6.60;;;;;;;19.37;49.38;97246.28;5004934;28;20108;-58
2022/04/21 10:57:46;;;;;;;66.45;6.13;;;;;;;20.35;50.70;97231.28;5005831;28;20100;-58
2022/04/21 11:00:23;;;;;;;60.38;5.30;;;;;;;22.11;48.91;97234.63;5006542;28;20080;-57
2022/04/21 11:03:00;;;;;;;62.50;7.40;;;;;;;21.26;43.62;97228.81;4982924;28;20030;-58
2022/04/21 11:05:30;;;;;;;61.72;6.28;;;;;;;21.03;44.22;97223.09;4980663;28;20054;-57
2022/04/21 11:08:11;;;;;;;57.00;5.25;;;;;;;19.40;45.32;97231.00;4987146;28;20693;-57
2022/04/21 11:10:36;;;;;;;58.97;5.35;;;;;;;19.29;45.76;97231.13;4989295;28;20038;-56
2022/04/21 11:13:02;;;;;;;58.17;5.37;;;;;;;20.54;43.30;97222.44;5004670;28;20049;-56
2022/04/21 11:15:40;;;;;;;46.40;4.80;;;;;;;19.82;45.18;97214.91;5003556;28;20268;-56
2022/04/21 11:18:10;;;;;;;52.13;4.80;;;;;;;19.93;44.11;97208.63;5003871;28;20030;-56
2022/04/21 11:20:42;;;;;;;64.43;5.20;;;;;;;20.38;42.37;97201.84;5003886;28;20146;-57
2022/04/21 11:23:23;;;;;;;63.63;4.93;;;;;;;20.92;40.96;97202.91;5003357;28;20141;-56
2022/04/21 11:25:50;;;;;;;63.78;5.15;;;;;;;21.63;40.09;97206.66;5001584;28;20683;-58
2022/04/21 11:28:24;;;;;;;65.80;5.70;;;;;;;20.40;41.59;97195.44;5003084;28;20155;-56
2022/04/21 11:30:56;;;;;;;61.65;5.47;;;;;;;20.20;41.94;97191.19;5005236;28;20084;-57
2022/04/21 11:33:22;;;;;;;58.65;4.63;;;;;;;19.87;47.97;97200.41;5004643;28;20026;-56
2022/04/21 11:35:48;;;;;;;54.88;4.82;;;;;;;20.33;43.00;97188.22;5005529;28;20121;-56
2022/04/21 11:38:14;;;;;;;57.95;5.07;;;;;;;20.51;41.05;97181.19;5005350;28;20037;-57
2022/04/21 11:40:40;;;;;;;57.20;4.82;;;;;;;20.74;41.34;97186.13;5003060;28;20044;-56
2022/04/21 11:43:11;;;;;;;58.35;4.90;;;;;;;19.93;41.98;97186.63;5006200;28;20424;-58
2022/04/21 11:45:40;;;;;;;61.45;5.65;;;;;;;19.25;45.08;97187.44;5006095;28;20365;-57
2022/04/21 11:48:11;;;;;;;62.40;5.20;;;;;;;18.09;47.09;97188.63;5003827;28;20399;-56
2022/04/21 11:50:36;;;;;;;58.00;5.03;;;;;;;17.89;48.68;97193.78;5002531;28;20034;-56
2022/04/21 11:53:11;;;;;;;66.40;5.80;;;;;;;17.94;49.82;97197.81;5002529;28;20021;-58
2022/04/21 11:55:36;;;;;;;49.42;4.75;;;;;;;16.49;49.97;97191.00;5004077;28;20651;-57
2022/04/21 11:58:02;;;;;;;53.88;5.05;;;;;;;17.07;50.22;97186.38;5004864;28;20076;-57
2022/04/21 12:08:46;;;;;;;60.85;5.32;;;;;;;17.37;50.53;97181.38;5001187;28;20112;-56
2022/04/21 12:11:17;;;;;;;58.20;5.07;;;;;;;17.04;48.41;97181.38;5003139;28;20116;-57
2022/04/21 12:13:47;;;;;;;58.85;5.15;;;;;;;18.43;47.74;97170.72;5001706;28;20022;-56
2022/04/21 12:16:36;;;;;;;73.45;5.57;;;;;;;19.17;51.21;97166.13;5002270;28;20504;-55